Time;durP1;ratioP1;P1;durP2;ratioP2;P2;SDS_P1;SDS_P2;PMS_P1;PMS_P2;Temp;Humidity;BMP_temperature;BMP_pressure;BME280_temperature;BME280_humidity;BME280_pressure;Samples;Min_cycle;Max_cycle;Signal;HPM_P1;HPM_P2
2022/06/09 00:00:30;;;;;;;2.15;1.95;;;;;;;;;;5032730;28;20204;-82
2022/06/09 00:02:59;;;;;;;3.95;1.92;;;;;;;;;;5045008;28;20210;-81
2022/06/09 00:05:29;;;;;;;2.58;2.00;;;;;;;;;;5037150;28;20654;-80
2022/06/09 00:07:56;;;;;;;3.83;1.73;;;;;;;;;;5049104;28;20203;-79
2022/06/09 00:10:26;;;;;;;1.98;1.73;;;;;;;;;;5045056;28;20206;-80
2022/06/09 00:12:53;;;;;;;2.78;1.77;;;;;;;;;;5039861;28;20206;-79
2022/06/09 00:15:20;;;;;;;2.88;2.03;;;;;;;;;;5042196;28;20290;-79
2022/06/09 00:17:47;;;;;;;3.83;2.00;;;;;;;;;;5050499;28;20225;-79
2022/06/09 00:20:16;;;;;;;3.70;2.63;;;;;;;;;;5046505;28;20203;-80
2022/06/09 00:22:45;;;;;;;4.05;2.03;;;;;;;;;;5042409;28;20205;-79
2022/06/09 00:25:12;;;;;;;3.38;2.25;;;;;;;;;;5047891;28;20206;-80
2022/06/09 00:27:40;;;;;;;3.55;1.88;;;;;;;;;;5048471;28;20566;-80
2022/06/09 00:30:09;;;;;;;2.20;2.00;;;;;;;;;;5042893;28;20242;-81
2022/06/09 00:32:36;;;;;;;2.47;2.00;;;;;;;;;;5051004;28;20257;-80
2022/06/09 00:35:03;;;;;;;4.15;2.00;;;;;;;;;;5045031;28;20222;-80
2022/06/09 00:37:30;;;;;;;2.20;2.00;;;;;;;;;;5048632;28;20223;-81
2022/06/09 00:39:59;;;;;;;2.67;2.30;;;;;;;;;;5058000;28;20202;-80
2022/06/09 00:42:26;;;;;;;3.33;1.80;;;;;;;;;;5049322;28;20215;-80
2022/06/09 00:44:53;;;;;;;2.50;2.30;;;;;;;;;;5033891;28;20665;-81
2022/06/09 00:47:22;;;;;;;2.22;2.03;;;;;;;;;;5049676;28;20281;-80
2022/06/09 00:49:53;;;;;;;3.25;2.25;;;;;;;;;;5049820;28;20282;-80
2022/06/09 00:52:21;;;;;;;2.97;1.88;;;;;;;;;;5055050;28;20222;-81
2022/06/09 00:54:50;;;;;;;2.75;2.17;;;;;;;;;;5038674;28;20199;-81
2022/06/09 00:57:20;;;;;;;2.20;2.00;;;;;;;;;;5051520;28;20206;-80
2022/06/09 00:59:50;;;;;;;5.05;2.05;;;;;;;;;;5050285;28;20513;-81
2022/06/09 01:02:19;;;;;;;2.30;1.90;;;;;;;;;;5047130;28;20192;-82
2022/06/09 01:04:46;;;;;;;2.58;1.60;;;;;;;;;;5048547;28;20646;-82
2022/06/09 01:07:15;;;;;;;2.40;1.52;;;;;;;;;;5037213;28;20222;-82
2022/06/09 01:09:42;;;;;;;2.05;1.65;;;;;;;;;;5050557;28;20199;-82
2022/06/09 01:12:24;;;;;;;3.55;2.20;;;;;;;;;;5047894;28;20210;-82
2022/06/09 01:14:53;;;;;;;3.00;2.15;;;;;;;;;;5040656;28;20674;-82
2022/06/09 01:17:22;;;;;;;2.70;1.88;;;;;;;;;;5037388;28;20629;-82
2022/06/09 01:20:03;;;;;;;3.80;2.08;;;;;;;;;;5051142;28;20206;-82
2022/06/09 01:22:47;;;;;;;5.90;2.70;;;;;;;;;;5037698;28;20205;-83
2022/06/09 01:25:35;;;;;;;3.20;1.55;;;;;;;;;;5038649;28;20206;-82
2022/06/09 01:28:09;;;;;;;2.33;1.95;;;;;;;;;;5047182;28;20202;-83
2022/06/09 01:30:43;;;;;;;5.00;2.10;;;;;;;;;;5048481;28;20194;-82
2022/06/09 01:33:15;;;;;;;5.63;2.10;;;;;;;;;;5043701;28;20230;-82
2022/06/09 01:35:45;;;;;;;2.55;1.70;;;;;;;;;;5040983;28;20235;-82
2022/06/09 01:38:12;;;;;;;4.88;1.85;;;;;;;;;;5048554;28;20195;-82
2022/06/09 01:40:39;;;;;;;4.22;1.83;;;;;;;;;;5048397;28;20253;-82
2022/06/09 01:43:07;;;;;;;2.55;2.35;;;;;;;;;;5042275;28;20215;-82
2022/06/09 01:45:37;;;;;;;2.95;2.30;;;;;;;;;;5039546;28;20230;-82
2022/06/09 01:48:08;;;;;;;2.63;1.60;;;;;;;;;;5043619;28;20191;-82
2022/06/09 01:50:37;;;;;;;3.53;2.45;;;;;;;;;;5045969;28;20647;-83
2022/06/09 01:53:08;;;;;;;3.00;1.95;;;;;;;;;;5045151;28;20578;-82
2022/06/09 01:55:36;;;;;;;2.42;1.90;;;;;;;;;;5048528;28;20217;-82
2022/06/09 01:58:06;;;;;;;4.03;1.90;;;;;;;;;;5051503;28;20708;-81
2022/06/09 02:00:33;;;;;;;3.55;2.53;;;;;;;;;;5038434;28;20207;-82
2022/06/09 02:03:04;;;;;;;4.18;2.50;;;;;;;;;;5046680;28;20199;-82
2022/06/09 02:05:34;;;;;;;1.90;1.75;;;;;;;;;;5041765;28;20223;-82
2022/06/09 02:08:04;;;;;;;3.38;2.58;;;;;;;;;;5042234;28;20198;-81
2022/06/09 02:10:33;;;;;;;2.00;1.65;;;;;;;;;;5052844;28;20195;-81
2022/06/09 02:13:01;;;;;;;3.63;2.00;;;;;;;;;;5044559;28;20306;-81
2022/06/09 02:15:31;;;;;;;2.38;1.50;;;;;;;;;;5037492;28;20669;-82
2022/06/09 02:17:59;;;;;;;2.92;2.42;;;;;;;;;;5051841;28;20191;-81
2022/06/09 02:20:26;;;;;;;3.83;1.88;;;;;;;;;;5051998;28;20199;-81
2022/06/09 02:22:54;;;;;;;3.65;1.65;;;;;;;;;;5040477;28;20204;-80
2022/06/09 02:25:21;;;;;;;2.35;1.70;;;;;;;;;;5035362;28;20203;-80
2022/06/09 02:27:48;;;;;;;3.20;2.08;;;;;;;;;;5048240;28;20190;-80
2022/06/09 02:30:15;;;;;;;4.78;2.00;;;;;;;;;;5041558;28;20206;-79
2022/06/09 02:32:42;;;;;;;2.45;1.40;;;;;;;;;;5047359;28;20264;-80
2022/06/09 02:35:10;;;;;;;5.88;1.52;;;;;;;;;;5049349;28;20570;-80
2022/06/09 02:37:37;;;;;;;3.20;1.80;;;;;;;;;;5039261;28;20238;-80
2022/06/09 02:40:06;;;;;;;3.90;1.92;;;;;;;;;;5051782;28;20194;-80
2022/06/09 02:42:33;;;;;;;2.75;1.60;;;;;;;;;;5042932;28;20697;-80
2022/06/09 02:45:03;;;;;;;3.13;1.67;;;;;;;;;;5042860;28;20677;-81
2022/06/09 02:47:30;;;;;;;2.10;1.50;;;;;;;;;;5040014;28;20731;-78
2022/06/09 02:49:57;;;;;;;2.88;1.65;;;;;;;;;;5046533;28;20202;-80
2022/06/09 02:52:24;;;;;;;4.72;1.67;;;;;;;;;;5037458;28;20250;-89
2022/06/09 02:54:51;;;;;;;2.90;2.03;;;;;;;;;;5046839;28;20206;-88
2022/06/09 02:57:19;;;;;;;2.58;1.90;;;;;;;;;;5045527;28;20191;-87
2022/06/09 02:59:46;;;;;;;2.47;1.80;;;;;;;;;;5048761;28;20203;-86
2022/06/09 03:02:14;;;;;;;4.57;1.67;;;;;;;;;;5042669;28;20722;-88
2022/06/09 03:04:41;;;;;;;2.35;1.65;;;;;;;;;;5046642;28;20654;-86
2022/06/09 03:07:08;;;;;;;2.05;1.70;;;;;;;;;;5046526;28;20210;-86
2022/06/09 03:09:35;;;;;;;4.05;2.10;;;;;;;;;;5062207;28;20198;-87
2022/06/09 03:12:02;;;;;;;5.32;1.80;;;;;;;;;;5039560;28;20591;-85
2022/06/09 03:14:30;;;;;;;3.38;2.03;;;;;;;;;;5044296;28;20207;-86
2022/06/09 03:16:57;;;;;;;3.72;1.80;;;;;;;;;;5053477;28;20199;-86
2022/06/09 03:19:24;;;;;;;2.35;1.60;;;;;;;;;;5044374;28;20210;-86
2022/06/09 03:21:52;;;;;;;9.98;2.10;;;;;;;;;;5040392;28;20547;-87
2022/06/09 03:24:19;;;;;;;5.78;1.90;;;;;;;;;;5050189;28;20191;-86
2022/06/09 03:26:46;;;;;;;3.78;1.92;;;;;;;;;;5051255;28;20191;-86
2022/06/09 03:29:13;;;;;;;2.80;1.83;;;;;;;;;;5050574;28;20831;-86
2022/06/09 03:31:41;;;;;;;4.05;2.55;;;;;;;;;;5044510;28;20218;-85
2022/06/09 03:34:08;;;;;;;6.28;1.83;;;;;;;;;;5046456;28;20662;-84
2022/06/09 03:36:35;;;;;;;3.67;2.28;;;;;;;;;;5041345;28;20195;-85
2022/06/09 03:39:02;;;;;;;3.28;1.95;;;;;;;;;;5056957;28;20202;-84
2022/06/09 03:41:29;;;;;;;2.33;1.90;;;;;;;;;;5043364;28;20214;-84
2022/06/09 03:43:57;;;;;;;3.33;2.10;;;;;;;;;;5048344;28;20210;-88
2022/06/09 03:46:24;;;;;;;3.88;2.00;;;;;;;;;;5043858;28;20199;-86
2022/06/09 03:48:53;;;;;;;4.35;1.80;;;;;;;;;;5048882;28;20200;-86
2022/06/09 03:51:20;;;;;;;3.40;1.92;;;;;;;;;;5041797;28;20372;-84
2022/06/09 03:53:47;;;;;;;3.08;1.83;;;;;;;;;;5053859;28;20294;-86
2022/06/09 03:56:15;;;;;;;4.22;2.53;;;;;;;;;;5047804;28;20199;-85
2022/06/09 03:58:43;;;;;;;6.80;2.83;;;;;;;;;;5041213;28;20204;-85
2022/06/09 04:01:13;;;;;;;2.47;2.10;;;;;;;;;;5048995;28;20650;-83
2022/06/09 04:03:40;;;;;;;5.32;2.03;;;;;;;;;;5051661;28;20230;-82
2022/06/09 04:06:12;;;;;;;3.85;2.53;;;;;;;;;;5038364;28;20290;-84
2022/06/09 04:08:39;;;;;;;2.70;1.80;;;;;;;;;;5042820;28;20196;-84
2022/06/09 04:11:06;;;;;;;4.72;2.38;;;;;;;;;;5046570;28;20199;-82
2022/06/09 04:13:33;;;;;;;3.03;2.40;;;;;;;;;;5046128;28;20249;-83
2022/06/09 04:16:00;;;;;;;5.10;2.70;;;;;;;;;;5040339;28;20605;-80
2022/06/09 04:18:27;;;;;;;4.53;3.05;;;;;;;;;;5054166;28;20282;-81
2022/06/09 04:20:54;;;;;;;7.30;2.83;;;;;;;;;;5051942;28;20218;-81
2022/06/09 04:23:25;;;;;;;5.60;2.80;;;;;;;;;;5052980;28;20566;-81
2022/06/09 04:25:52;;;;;;;5.63;2.90;;;;;;;;;;5051682;28;20206;-82
2022/06/09 04:28:19;;;;;;;3.30;2.33;;;;;;;;;;5043311;28;20196;-80
2022/06/09 04:30:47;;;;;;;5.10;2.60;;;;;;;;;;5041340;28;20239;-83
2022/06/09 04:33:14;;;;;;;5.88;3.25;;;;;;;;;;5053802;28;20242;-82
2022/06/09 04:35:41;;;;;;;5.90;3.83;;;;;;;;;;5038355;28;20199;-82
2022/06/09 04:38:08;;;;;;;8.02;3.20;;;;;;;;;;5040685;28;20222;-81
2022/06/09 04:40:37;;;;;;;5.15;3.55;;;;;;;;;;5046386;28;20676;-81
2022/06/09 04:43:05;;;;;;;5.55;3.05;;;;;;;;;;5036959;28;20326;-81
2022/06/09 04:45:32;;;;;;;3.83;2.72;;;;;;;;;;5041367;28;20203;-86
2022/06/09 04:47:59;;;;;;;6.05;3.92;;;;;;;;;;5044510;28;20195;-82
2022/06/09 04:50:26;;;;;;;4.03;3.13;;;;;;;;;;5036187;28;20203;-82
2022/06/09 04:52:53;;;;;;;6.07;3.47;;;;;;;;;;5046934;28;20246;-82
2022/06/09 04:55:21;;;;;;;6.88;4.20;;;;;;;;;;5041055;28;20227;-81
2022/06/09 04:57:49;;;;;;;4.18;3.28;;;;;;;;;;5047391;28;20658;-81
2022/06/09 05:00:17;;;;;;;4.85;3.45;;;;;;;;;;5046912;28;20661;-81
2022/06/09 05:02:44;;;;;;;5.35;3.78;;;;;;;;;;5048051;28;20195;-81
2022/06/09 05:05:18;;;;;;;5.40;4.20;;;;;;;;;;5043481;28;20218;-81
2022/06/09 05:07:45;;;;;;;4.75;4.30;;;;;;;;;;5053230;28;20198;-82
2022/06/09 05:10:12;;;;;;;5.22;4.03;;;;;;;;;;5049378;28;20256;-82
2022/06/09 05:12:39;;;;;;;7.35;5.00;;;;;;;;;;5050699;28;20219;-83
2022/06/09 05:15:08;;;;;;;5.55;4.18;;;;;;;;;;5042800;28;20635;-81
2022/06/09 05:17:35;;;;;;;6.05;4.05;;;;;;;;;;5049534;28;20199;-82
2022/06/09 05:20:02;;;;;;;5.45;4.47;;;;;;;;;;5037314;28;20214;-84
2022/06/09 05:22:29;;;;;;;6.18;4.90;;;;;;;;;;5052845;28;20203;-83
2022/06/09 05:24:58;;;;;;;7.03;5.18;;;;;;;;;;5044654;28;20207;-82
2022/06/09 05:27:25;;;;;;;7.93;5.57;;;;;;;;;;5048495;28;20294;-83
2022/06/09 05:29:52;;;;;;;7.20;4.53;;;;;;;;;;5050203;28;20204;-83
2022/06/09 05:32:21;;;;;;;8.50;5.55;;;;;;;;;;5042544;28;20552;-81
2022/06/09 05:34:49;;;;;;;5.07;4.63;;;;;;;;;;5044569;28;20389;-81
2022/06/09 05:37:16;;;;;;;8.05;5.63;;;;;;;;;;5042312;28;20674;-82
2022/06/09 05:45:10;;;;;;;11.88;8.48;;;;;;;;;;5038337;28;20191;-83
2022/06/09 05:47:38;;;;;;;10.70;8.10;;;;;;;;;;5042757;28;20207;-81
2022/06/09 05:50:06;;;;;;;10.40;8.75;;;;;;;;;;5042952;28;20203;-81
2022/06/09 05:52:33;;;;;;;10.30;8.63;;;;;;;;;;5036030;28;20224;-80
2022/06/09 05:55:00;;;;;;;13.00;9.02;;;;;;;;;;5032780;28;20201;-81
2022/06/09 05:57:28;;;;;;;10.48;7.88;;;;;;;;;;5046397;28;20203;-81
2022/06/09 05:59:56;;;;;;;18.05;9.10;;;;;;;;;;5037783;28;20203;-80
2022/06/09 06:02:24;;;;;;;9.00;8.05;;;;;;;;;;5045577;28;20265;-81
2022/06/09 06:04:53;;;;;;;9.57;7.57;;;;;;;;;;5041068;28;20206;-81
2022/06/09 06:07:20;;;;;;;8.25;7.03;;;;;;;;;;5045149;28;20194;-81
2022/06/09 06:09:48;;;;;;;10.95;9.85;;;;;;;;;;5051348;28;20218;-81
2022/06/09 06:12:15;;;;;;;12.48;8.63;;;;;;;;;;5036546;28;20261;-81
2022/06/09 06:14:42;;;;;;;9.40;8.50;;;;;;;;;;5043107;28;20199;-81
2022/06/09 06:17:09;;;;;;;15.90;9.95;;;;;;;;;;5041283;28;20291;-80
2022/06/09 06:19:36;;;;;;;11.82;7.50;;;;;;;;;;5045878;28;20210;-80
2022/06/09 06:22:05;;;;;;;8.45;7.35;;;;;;;;;;5050994;28;20195;-81
2022/06/09 06:24:32;;;;;;;9.27;6.65;;;;;;;;;;5041954;28;20241;-81
2022/06/09 06:26:59;;;;;;;7.93;7.00;;;;;;;;;;5046348;28;20199;-82
2022/06/09 06:29:27;;;;;;;8.75;6.75;;;;;;;;;;5050812;28;20206;-81
2022/06/09 06:31:54;;;;;;;7.53;6.15;;;;;;;;;;5033207;28;20246;-82
2022/06/09 06:34:21;;;;;;;9.50;6.32;;;;;;;;;;5040047;28;20226;-82
2022/06/09 06:36:49;;;;;;;9.02;6.00;;;;;;;;;;5051014;28;20199;-81
2022/06/09 06:39:18;;;;;;;6.93;6.32;;;;;;;;;;5049442;28;20227;-81
2022/06/09 06:41:45;;;;;;;7.82;7.18;;;;;;;;;;5040126;28;20231;-81
2022/06/09 06:44:12;;;;;;;8.93;7.03;;;;;;;;;;5041696;28;20214;-80
2022/06/09 06:46:39;;;;;;;9.75;7.35;;;;;;;;;;5042666;28;20289;-80
2022/06/09 06:49:08;;;;;;;8.13;6.13;;;;;;;;;;5039889;28;20222;-81
2022/06/09 06:51:35;;;;;;;10.32;7.35;;;;;;;;;;5045862;28;20203;-83
2022/06/09 06:54:04;;;;;;;6.72;6.03;;;;;;;;;;5045713;28;20215;-82
2022/06/09 06:56:33;;;;;;;7.20;6.50;;;;;;;;;;5041861;28;20601;-81
2022/06/09 06:59:01;;;;;;;7.93;7.13;;;;;;;;;;5047766;28;20278;-81
2022/06/09 07:01:28;;;;;;;11.60;7.13;;;;;;;;;;5032542;28;20630;-82
2022/06/09 07:03:55;;;;;;;8.70;6.30;;;;;;;;;;5048225;28;20201;-82
2022/06/09 07:06:22;;;;;;;9.93;7.75;;;;;;;;;;5032183;28;20278;-83
2022/06/09 07:08:49;;;;;;;8.57;6.97;;;;;;;;;;5052968;28;20642;-81
2022/06/09 07:11:16;;;;;;;8.63;7.18;;;;;;;;;;5043807;28;20203;-82
2022/06/09 07:13:45;;;;;;;9.07;7.82;;;;;;;;;;5050668;28;20218;-82
2022/06/09 07:16:12;;;;;;;7.63;6.90;;;;;;;;;;5046143;28;20202;-81
2022/06/09 07:18:40;;;;;;;9.20;8.35;;;;;;;;;;5054481;28;20199;-82
2022/06/09 07:21:07;;;;;;;8.15;5.82;;;;;;;;;;5040209;28;20195;-82
2022/06/09 07:23:34;;;;;;;8.00;7.20;;;;;;;;;;5050454;28;20199;-82
2022/06/09 07:26:02;;;;;;;9.18;8.23;;;;;;;;;;5050288;28;20191;-80
2022/06/09 07:28:29;;;;;;;7.68;6.85;;;;;;;;;;5059307;28;20589;-81
2022/06/09 07:30:58;;;;;;;8.77;6.50;;;;;;;;;;5038619;28;20200;-81
2022/06/09 07:33:26;;;;;;;7.50;6.70;;;;;;;;;;5050256;28;20249;-82
2022/06/09 07:35:54;;;;;;;6.95;6.35;;;;;;;;;;5048106;28;20643;-82
2022/06/09 07:38:21;;;;;;;8.27;7.47;;;;;;;;;;5053751;28;20195;-82
2022/06/09 07:40:49;;;;;;;7.47;6.38;;;;;;;;;;5048487;28;20670;-82
2022/06/09 07:43:16;;;;;;;7.55;6.70;;;;;;;;;;5050531;28;20215;-81
2022/06/09 07:45:43;;;;;;;7.25;6.65;;;;;;;;;;5044088;28;20198;-81
2022/06/09 07:48:12;;;;;;;12.23;8.05;;;;;;;;;;5052796;28;20199;-81
2022/06/09 07:50:39;;;;;;;8.15;7.40;;;;;;;;;;5049103;28;20642;-80
2022/06/09 07:53:07;;;;;;;7.97;7.18;;;;;;;;;;5037577;28;20215;-81
2022/06/09 07:55:34;;;;;;;8.70;7.95;;;;;;;;;;5049247;28;20661;-81
2022/06/09 07:58:01;;;;;;;7.82;7.13;;;;;;;;;;5054159;28;20203;-81
2022/06/09 08:00:28;;;;;;;8.23;7.53;;;;;;;;;;5038887;28;20203;-82
2022/06/09 08:02:56;;;;;;;9.13;8.23;;;;;;;;;;5045324;28;20685;-80
2022/06/09 08:05:25;;;;;;;7.82;7.13;;;;;;;;;;5046381;28;20264;-82
2022/06/09 08:07:52;;;;;;;11.82;7.50;;;;;;;;;;5043436;28;20223;-81
2022/06/09 08:10:21;;;;;;;7.90;7.20;;;;;;;;;;5048872;28;20260;-83
2022/06/09 08:12:49;;;;;;;8.10;7.30;;;;;;;;;;5047130;28;20627;-82
2022/06/09 08:15:16;;;;;;;8.40;7.75;;;;;;;;;;5045762;28;20196;-82
2022/06/09 08:17:43;;;;;;;7.80;7.20;;;;;;;;;;5053048;28;20206;-82
2022/06/09 08:20:11;;;;;;;7.88;7.10;;;;;;;;;;5059394;28;20500;-82
2022/06/09 08:22:41;;;;;;;7.78;6.88;;;;;;;;;;5053348;28;20196;-79
2022/06/09 08:25:09;;;;;;;8.15;7.35;;;;;;;;;;5042623;28;20194;-80
2022/06/09 08:27:36;;;;;;;8.77;7.82;;;;;;;;;;5054959;28;20707;-80
2022/06/09 08:30:04;;;;;;;7.75;6.95;;;;;;;;;;5035228;28;20633;-80
2022/06/09 08:32:31;;;;;;;8.35;7.65;;;;;;;;;;5044731;28;20621;-79
2022/06/09 08:34:58;;;;;;;8.63;7.93;;;;;;;;;;5043746;28;20222;-79
2022/06/09 08:37:25;;;;;;;8.13;7.40;;;;;;;;;;5041601;28;20206;-80
2022/06/09 08:39:54;;;;;;;8.20;7.50;;;;;;;;;;5046793;28;20222;-80
2022/06/09 08:42:26;;;;;;;8.50;7.63;;;;;;;;;;5054560;28;20211;-83
2022/06/09 08:44:57;;;;;;;7.82;6.55;;;;;;;;;;5044490;28;20202;-81
2022/06/09 08:47:26;;;;;;;9.25;7.63;;;;;;;;;;5054114;28;20702;-82
2022/06/09 08:50:00;;;;;;;7.00;6.40;;;;;;;;;;5050184;28;20703;-81
2022/06/09 08:52:35;;;;;;;8.43;7.63;;;;;;;;;;5050610;28;20312;-84
2022/06/09 08:55:15;;;;;;;7.90;7.18;;;;;;;;;;5043366;28;20705;-83
2022/06/09 08:57:44;;;;;;;8.35;7.60;;;;;;;;;;5046446;28;20201;-85
2022/06/09 09:00:14;;;;;;;7.72;6.93;;;;;;;;;;5047454;28;20620;-82
2022/06/09 09:02:42;;;;;;;8.77;6.68;;;;;;;;;;5052488;28;20194;-82
2022/06/09 09:05:14;;;;;;;7.70;6.90;;;;;;;;;;5037506;28;20641;-83
2022/06/09 09:07:44;;;;;;;8.50;7.80;;;;;;;;;;5050319;28;20689;-83
2022/06/09 09:10:17;;;;;;;7.75;7.05;;;;;;;;;;5048925;28;20681;-84
2022/06/09 09:12:46;;;;;;;7.25;6.30;;;;;;;;;;5049602;28;20215;-82
2022/06/09 09:15:17;;;;;;;7.35;5.85;;;;;;;;;;5047308;28;20215;-83
2022/06/09 09:17:47;;;;;;;7.25;6.55;;;;;;;;;;5052399;28;20690;-83
2022/06/09 09:20:16;;;;;;;7.93;7.28;;;;;;;;;;5050726;28;20566;-83
2022/06/09 09:22:47;;;;;;;6.22;5.63;;;;;;;;;;5048719;28;20617;-83
2022/06/09 09:25:21;;;;;;;7.25;6.55;;;;;;;;;;5048266;28;20196;-84
2022/06/09 09:27:50;;;;;;;6.60;6.00;;;;;;;;;;5049002;28;20210;-82
2022/06/09 09:30:19;;;;;;;7.00;5.55;;;;;;;;;;5043329;28;20207;-83
2022/06/09 09:32:48;;;;;;;6.32;5.68;;;;;;;;;;5045798;28;20203;-85
2022/06/09 09:35:16;;;;;;;6.07;5.47;;;;;;;;;;5037785;28;20231;-84
2022/06/09 09:37:46;;;;;;;5.70;5.20;;;;;;;;;;5040013;28;20188;-84
2022/06/09 09:40:23;;;;;;;7.75;5.47;;;;;;;;;;5033006;28;20227;-82
2022/06/09 09:42:51;;;;;;;7.70;5.75;;;;;;;;;;5042246;28;20691;-82
2022/06/09 09:45:20;;;;;;;7.10;5.60;;;;;;;;;;5036955;28;20209;-82
2022/06/09 09:47:49;;;;;;;8.93;5.75;;;;;;;;;;5050415;28;20203;-84
2022/06/09 09:50:22;;;;;;;6.50;6.03;;;;;;;;;;5050902;28;20496;-82
2022/06/09 09:52:55;;;;;;;6.50;5.88;;;;;;;;;;5042899;28;20196;-82
2022/06/09 09:55:29;;;;;;;5.50;5.10;;;;;;;;;;5044342;28;20217;-83
2022/06/09 09:58:18;;;;;;;5.65;5.20;;;;;;;;;;5053784;28;20452;-83
2022/06/09 10:00:45;;;;;;;6.30;5.82;;;;;;;;;;5030414;28;20197;-83
2022/06/09 10:08:48;;;;;;;5.32;4.68;;;;;;;;;;5049305;28;20253;-84
2022/06/09 10:14:06;;;;;;;8.95;5.88;;;;;;;;;;5035368;28;20257;-82
2022/06/09 10:16:34;;;;;;;6.07;4.88;;;;;;;;;;5043758;28;20196;-81
2022/06/09 10:19:02;;;;;;;5.43;5.03;;;;;;;;;;5047029;28;20207;-82
2022/06/09 10:21:47;;;;;;;6.22;5.15;;;;;;;;;;5043213;28;20298;-84
2022/06/09 10:24:16;;;;;;;5.88;5.20;;;;;;;;;;5040753;28;20640;-83
2022/06/09 10:26:45;;;;;;;5.55;5.07;;;;;;;;;;5047405;28;20203;-83
2022/06/09 10:29:16;;;;;;;5.07;4.70;;;;;;;;;;5052156;28;20605;-84
2022/06/09 10:31:47;;;;;;;5.72;5.05;;;;;;;;;;5050785;28;20210;-83
2022/06/09 10:34:24;;;;;;;4.80;4.50;;;;;;;;;;5048765;28;20238;-83
2022/06/09 10:36:54;;;;;;;5.40;4.10;;;;;;;;;;5041111;28;20752;-80
2022/06/09 10:39:28;;;;;;;5.13;4.63;;;;;;;;;;5043552;28;20573;-79
2022/06/09 10:42:01;;;;;;;5.55;4.60;;;;;;;;;;5048753;28;20686;-84
2022/06/09 10:44:32;;;;;;;8.30;5.20;;;;;;;;;;5044438;28;20211;-78
2022/06/09 10:55:29;;;;;;;4.50;4.10;;;;;;;;;;5043675;28;20230;-81
2022/06/09 10:58:00;;;;;;;6.78;4.78;;;;;;;;;;5041277;28;20210;-79
2022/06/09 11:00:29;;;;;;;4.30;3.72;;;;;;;;;;5044149;28;20223;-81
2022/06/09 11:02:57;;;;;;;4.25;3.85;;;;;;;;;;5050165;28;20625;-78
2022/06/09 11:05:30;;;;;;;3.97;3.60;;;;;;;;;;5041448;28;20267;-79
2022/06/09 11:08:02;;;;;;;3.50;3.30;;;;;;;;;;5040441;28;20249;-79
2022/06/09 11:10:33;;;;;;;4.40;3.25;;;;;;;;;;5041772;28;20279;-80
2022/06/09 11:13:17;;;;;;;3.50;3.15;;;;;;;;;;5047626;28;20191;-80
2022/06/09 11:15:47;;;;;;;3.33;3.10;;;;;;;;;;5047199;28;20709;-79
2022/06/09 11:18:23;;;;;;;3.67;3.38;;;;;;;;;;5062387;28;20194;-79
2022/06/09 11:20:59;;;;;;;3.65;3.33;;;;;;;;;;5036435;28;20226;-78
2022/06/09 11:23:33;;;;;;;3.90;3.00;;;;;;;;;;5035856;28;20712;-78
2022/06/09 11:26:07;;;;;;;4.10;3.70;;;;;;;;;;5048084;28;20266;-80
2022/06/09 11:28:41;;;;;;;4.85;3.33;;;;;;;;;;5039600;28;20709;-80
2022/06/09 11:31:13;;;;;;;4.05;3.72;;;;;;;;;;5042628;28;20681;-80
2022/06/09 11:33:47;;;;;;;3.55;3.25;;;;;;;;;;5049480;28;20188;-80
2022/06/09 11:36:18;;;;;;;2.70;2.60;;;;;;;;;;5045650;28;20233;-80
2022/06/09 11:38:49;;;;;;;3.33;3.03;;;;;;;;;;5048589;28;20199;-80
2022/06/09 11:41:26;;;;;;;3.03;2.80;;;;;;;;;;5040180;28;20203;-80
2022/06/09 11:43:59;;;;;;;3.17;2.55;;;;;;;;;;5038795;28;20199;-80
2022/06/09 11:46:28;;;;;;;3.30;2.67;;;;;;;;;;5044560;28;20199;-81
2022/06/09 11:48:57;;;;;;;2.88;2.67;;;;;;;;;;5045536;28;20191;-82
2022/06/09 11:51:25;;;;;;;2.50;2.30;;;;;;;;;;5039054;28;20218;-81
2022/06/09 11:53:54;;;;;;;3.83;2.95;;;;;;;;;;5047876;28;20233;-82
2022/06/09 11:56:34;;;;;;;3.50;2.85;;;;;;;;;;5048029;28;20670;-82
2022/06/09 11:59:03;;;;;;;3.08;2.85;;;;;;;;;;5036187;28;20204;-81
2022/06/09 12:01:43;;;;;;;2.67;2.47;;;;;;;;;;5040314;28;20234;-81
2022/06/09 12:04:20;;;;;;;2.50;2.30;;;;;;;;;;5041918;28;20683;-79
2022/06/09 12:07:03;;;;;;;3.70;2.30;;;;;;;;;;5044703;28;20234;-80
2022/06/09 12:09:34;;;;;;;2.20;2.00;;;;;;;;;;5051122;28;20352;-81
2022/06/09 12:12:03;;;;;;;2.60;2.40;;;;;;;;;;5061078;28;20245;-81
2022/06/09 12:14:32;;;;;;;2.40;2.20;;;;;;;;;;5045506;28;20560;-80
2022/06/09 12:17:10;;;;;;;2.70;2.50;;;;;;;;;;5035278;28;20278;-81
2022/06/09 12:19:38;;;;;;;3.03;2.08;;;;;;;;;;5050391;28;20222;-81
2022/06/09 12:22:24;;;;;;;2.08;1.88;;;;;;;;;;5046549;28;20650;-82
2022/06/09 12:25:02;;;;;;;2.45;2.10;;;;;;;;;;5046632;28;20207;-79
2022/06/09 12:27:50;;;;;;;2.45;2.00;;;;;;;;;;5048221;28;20689;-81
2022/06/09 12:30:32;;;;;;;2.47;2.28;;;;;;;;;;5041359;28;20207;-80
2022/06/09 12:33:17;;;;;;;2.00;1.90;;;;;;;;;;5058031;28;20336;-81
2022/06/09 12:35:48;;;;;;;2.65;2.30;;;;;;;;;;5043711;28;20285;-83
2022/06/09 12:38:21;;;;;;;2.33;2.13;;;;;;;;;;5043369;28;20211;-81
2022/06/09 12:40:50;;;;;;;2.63;1.83;;;;;;;;;;5043921;28;20195;-81
2022/06/09 12:43:23;;;;;;;2.63;2.40;;;;;;;;;;5047747;28;20226;-80
2022/06/09 12:46:01;;;;;;;1.98;1.80;;;;;;;;;;5041314;28;20196;-82
2022/06/09 12:48:29;;;;;;;2.05;1.95;;;;;;;;;;5043114;28;20285;-81
2022/06/09 12:50:57;;;;;;;2.97;2.17;;;;;;;;;;5046753;28;20303;-82
2022/06/09 12:53:25;;;;;;;2.17;2.08;;;;;;;;;;5044681;28;20213;-82
2022/06/09 12:55:54;;;;;;;2.38;2.17;;;;;;;;;;5044723;28;20231;-81
2022/06/09 12:58:23;;;;;;;1.75;1.60;;;;;;;;;;5047517;28;20555;-80
2022/06/09 13:00:53;;;;;;;1.73;1.63;;;;;;;;;;5042846;28;20716;-81
2022/06/09 13:03:26;;;;;;;1.90;1.80;;;;;;;;;;5038240;28;20236;-82
2022/06/09 13:05:54;;;;;;;2.42;2.10;;;;;;;;;;5049027;28;20198;-81
2022/06/09 13:08:22;;;;;;;2.28;2.08;;;;;;;;;;5050149;28;20673;-82
2022/06/09 13:10:55;;;;;;;1.80;1.50;;;;;;;;;;5044233;28;20199;-82
2022/06/09 13:13:24;;;;;;;2.55;2.30;;;;;;;;;;5036649;28;20691;-81
2022/06/09 13:15:55;;;;;;;1.95;1.75;;;;;;;;;;5047768;28;20655;-82
2022/06/09 13:18:26;;;;;;;2.38;1.92;;;;;;;;;;5042265;28;20206;-81
2022/06/09 13:20:58;;;;;;;1.48;1.38;;;;;;;;;;5041791;28;20227;-80
2022/06/09 13:23:25;;;;;;;2.25;1.80;;;;;;;;;;5046487;28;20203;-81
2022/06/09 13:25:52;;;;;;;3.03;1.90;;;;;;;;;;5035574;28;20231;-81
2022/06/09 13:28:29;;;;;;;1.75;1.40;;;;;;;;;;5043820;28;20568;-80
2022/06/09 13:30:57;;;;;;;1.55;1.40;;;;;;;;;;5045662;28;20282;-85
2022/06/09 13:33:25;;;;;;;3.83;1.40;;;;;;;;;;5042321;28;20287;-82
2022/06/09 13:35:55;;;;;;;1.27;1.17;;;;;;;;;;5040365;28;20223;-81
2022/06/09 13:38:26;;;;;;;1.52;1.42;;;;;;;;;;5030073;28;20694;-81
2022/06/09 13:40:54;;;;;;;1.80;1.70;;;;;;;;;;5030506;28;20285;-79
2022/06/09 13:43:28;;;;;;;1.75;1.63;;;;;;;;;;5038099;28;20223;-81
2022/06/09 13:46:03;;;;;;;3.78;1.35;;;;;;;;;;5047530;28;20195;-83
2022/06/09 13:48:40;;;;;;;1.58;1.48;;;;;;;;;;5048144;28;20206;-83
2022/06/09 13:51:20;;;;;;;1.50;1.40;;;;;;;;;;5036318;28;20649;-84
2022/06/09 13:53:50;;;;;;;1.55;1.45;;;;;;;;;;5051663;28;20675;-84
2022/06/09 13:56:17;;;;;;;1.65;1.45;;;;;;;;;;5044920;28;20641;-80
2022/06/09 13:58:44;;;;;;;1.63;1.52;;;;;;;;;;5044474;28;20199;-83
2022/06/09 14:01:12;;;;;;;1.50;1.35;;;;;;;;;;5050376;28;20197;-82
2022/06/09 14:03:42;;;;;;;1.38;1.27;;;;;;;;;;5038967;28;20203;-82
2022/06/09 14:06:11;;;;;;;1.52;1.42;;;;;;;;;;5047237;28;20218;-82
2022/06/09 14:08:41;;;;;;;1.95;1.67;;;;;;;;;;5045431;28;20211;-83
2022/06/09 14:11:08;;;;;;;1.50;1.40;;;;;;;;;;5049361;28;20654;-83
2022/06/09 14:13:37;;;;;;;1.77;1.50;;;;;;;;;;5032362;28;20663;-79
2022/06/09 14:16:04;;;;;;;1.95;1.65;;;;;;;;;;5037201;28;20261;-80
2022/06/09 14:18:34;;;;;;;1.50;1.38;;;;;;;;;;5043309;28;20202;-81
2022/06/09 14:21:01;;;;;;;1.40;1.20;;;;;;;;;;5047756;28;20199;-83
2022/06/09 14:23:29;;;;;;;2.33;1.30;;;;;;;;;;5041939;28;20444;-81
2022/06/09 14:25:58;;;;;;;1.63;1.10;;;;;;;;;;5046627;28;20282;-82
2022/06/09 14:28:25;;;;;;;1.67;1.58;;;;;;;;;;5050662;28;20203;-81
2022/06/09 14:30:52;;;;;;;1.50;1.10;;;;;;;;;;5039074;28;20199;-81
2022/06/09 14:33:20;;;;;;;1.45;1.30;;;;;;;;;;5043535;28;20206;-82
2022/06/09 14:35:47;;;;;;;1.20;1.00;;;;;;;;;;5045320;28;20226;-83
2022/06/09 14:38:14;;;;;;;1.20;1.10;;;;;;;;;;5037507;28;20199;-83
2022/06/09 14:40:43;;;;;;;1.52;1.42;;;;;;;;;;5048867;28;20686;-81
2022/06/09 14:43:12;;;;;;;1.48;1.23;;;;;;;;;;5035696;28;20266;-83
2022/06/09 14:45:40;;;;;;;1.20;1.10;;;;;;;;;;5043147;28;20207;-81
2022/06/09 14:48:08;;;;;;;1.77;1.40;;;;;;;;;;5038557;28;20276;-82
2022/06/09 14:50:35;;;;;;;1.40;1.30;;;;;;;;;;5036019;28;20204;-81
2022/06/09 14:53:02;;;;;;;2.25;1.60;;;;;;;;;;5042538;28;20202;-82
2022/06/09 14:55:29;;;;;;;1.75;1.20;;;;;;;;;;5030954;28;20215;-82
2022/06/09 14:57:56;;;;;;;2.35;1.45;;;;;;;;;;5048346;28;20202;-82
2022/06/09 15:00:26;;;;;;;2.22;1.40;;;;;;;;;;5040619;28;20199;-82
2022/06/09 15:02:55;;;;;;;1.40;1.30;;;;;;;;;;5049295;28;20873;-81
2022/06/09 15:05:22;;;;;;;1.35;1.25;;;;;;;;;;5040973;28;20664;-81
2022/06/09 15:07:50;;;;;;;1.70;1.30;;;;;;;;;;5044569;28;20207;-82
2022/06/09 15:10:21;;;;;;;1.90;1.30;;;;;;;;;;5044629;28;20222;-82
2022/06/09 15:12:48;;;;;;;1.35;1.25;;;;;;;;;;5042828;28;20282;-81
2022/06/09 15:15:15;;;;;;;2.78;1.25;;;;;;;;;;5044857;28;20223;-80
2022/06/09 15:17:45;;;;;;;1.95;1.75;;;;;;;;;;5045427;28;20694;-80